createdAt,value
2022-08-10T00:01:51.296Z,1.98
2022-08-10T00:04:23.451Z,2.38
2022-08-10T00:06:53.930Z,2.00
2022-08-10T00:09:21.822Z,2.00
2022-08-10T00:11:49.424Z,1.92
2022-08-10T00:14:16.805Z,2.17
2022-08-10T00:16:43.680Z,2.00
2022-08-10T00:19:10.631Z,2.00
2022-08-10T00:21:37.801Z,2.70
2022-08-10T00:24:04.879Z,2.70
2022-08-10T00:27:52.339Z,2.40
2022-08-10T00:29:19.100Z,2.40
2022-08-10T00:31:58.890Z,2.28
2022-08-10T00:34:32.262Z,2.25
2022-08-10T00:37:00.356Z,3.22
2022-08-10T00:39:29.180Z,2.45
2022-08-10T00:42:06.961Z,2.10
2022-08-10T00:44:50.128Z,2.42
2022-08-10T00:47:35.855Z,2.20
2022-08-10T00:50:07.839Z,3.05
2022-08-10T00:52:36.877Z,2.30
2022-08-10T00:55:05.717Z,2.22
2022-08-10T00:57:34.143Z,2.03
2022-08-10T01:00:01.200Z,2.50
2022-08-10T01:02:33.118Z,3.08
2022-08-10T01:05:06.606Z,2.38
2022-08-10T01:08:14.685Z,2.70
2022-08-10T01:10:53.532Z,2.60
2022-08-10T01:13:53.133Z,2.78
2022-08-10T01:16:50.135Z,3.10
2022-08-10T01:19:48.031Z,2.85
2022-08-10T01:22:51.589Z,2.40
2022-08-10T01:25:27.085Z,2.50
2022-08-10T01:28:45.449Z,2.42
2022-08-10T01:31:20.978Z,2.58
2022-08-10T01:34:02.077Z,2.50
2022-08-10T01:36:35.243Z,2.40
2022-08-10T01:39:06.273Z,3.08
2022-08-10T01:41:46.475Z,2.53
2022-08-10T01:44:27.436Z,3.05
2022-08-10T01:47:30.011Z,3.38
2022-08-10T01:50:05.259Z,3.47
2022-08-10T01:52:35.509Z,3.08
2022-08-10T01:55:03.439Z,2.88
2022-08-10T01:57:34.087Z,2.92
2022-08-10T02:00:03.582Z,2.95
2022-08-10T02:02:36.544Z,2.60
2022-08-10T02:05:06.284Z,2.92
2022-08-10T02:07:36.411Z,2.70
2022-08-10T02:10:11.950Z,2.60
2022-08-10T02:12:42.564Z,2.27
2022-08-10T02:15:16.500Z,2.88
2022-08-10T02:17:59.678Z,3.42
2022-08-10T02:20:37.831Z,2.78
2022-08-10T02:23:15.211Z,2.90
2022-08-10T02:25:44.704Z,2.60
2022-08-10T02:28:29.361Z,2.95
2022-08-10T02:31:06.294Z,2.90
2022-08-10T02:33:38.113Z,2.83
2022-08-10T02:36:11.854Z,2.88
2022-08-10T02:38:58.598Z,2.55
2022-08-10T02:45:15.217Z,2.88
2022-08-10T02:45:20.245Z,3.55
2022-08-10T02:48:12.065Z,3.10
2022-08-10T02:50:43.194Z,3.53
2022-08-10T02:53:55.408Z,2.70
2022-08-10T02:56:53.708Z,3.03
2022-08-10T02:59:48.069Z,3.17
2022-08-10T03:02:26.251Z,3.13
2022-08-10T03:05:00.414Z,3.55
2022-08-10T03:07:43.559Z,2.97
2022-08-10T03:10:21.533Z,2.90
2022-08-10T03:12:56.170Z,2.88
2022-08-10T03:15:25.223Z,3.55
2022-08-10T03:17:57.579Z,3.00
2022-08-10T03:20:37.686Z,3.50
2022-08-10T03:23:15.062Z,2.90
2022-08-10T03:25:53.629Z,3.20
2022-08-10T03:28:24.606Z,3.00
2022-08-10T03:30:53.760Z,3.22
2022-08-10T03:33:22.667Z,3.47
2022-08-10T03:36:42.492Z,3.50
2022-08-10T03:38:40.591Z,3.25
2022-08-10T03:41:15.937Z,3.40
2022-08-10T03:43:48.939Z,3.22
2022-08-10T03:46:21.307Z,3.47
2022-08-10T03:48:53.910Z,3.55
2022-08-10T03:51:22.423Z,3.22
2022-08-10T03:54:05.248Z,2.97
2022-08-10T03:56:39.817Z,3.15
2022-08-10T03:59:11.112Z,3.40
2022-08-10T04:02:45.056Z,3.63
2022-08-10T04:04:26.264Z,3.72
2022-08-10T04:06:57.035Z,3.55
2022-08-10T04:09:43.156Z,3.53
2022-08-10T04:12:15.815Z,3.60
2022-08-10T04:14:49.575Z,3.83
2022-08-10T04:17:56.362Z,3.30
2022-08-10T04:20:14.054Z,4.15
2022-08-10T04:22:44.557Z,3.30
2022-08-10T04:25:14.751Z,3.35
2022-08-10T04:27:43.154Z,2.85
2022-08-10T04:30:10.751Z,3.70
2022-08-10T04:32:39.716Z,3.53
2022-08-10T04:35:10.781Z,3.83
2022-08-10T04:37:46.717Z,3.65
2022-08-10T04:40:29.332Z,3.70
2022-08-10T04:43:12.430Z,3.67
2022-08-10T04:45:49.963Z,3.78
2022-08-10T04:48:42.400Z,3.40
2022-08-10T04:51:17.675Z,5.82
2022-08-10T04:54:05.579Z,3.58
2022-08-10T04:56:38.973Z,4.03
2022-08-10T04:59:09.220Z,4.25
2022-08-10T05:02:30.473Z,4.70
2022-08-10T05:04:36.588Z,3.70
2022-08-10T05:07:15.868Z,4.32
2022-08-10T05:10:04.554Z,4.25
2022-08-10T05:12:38.949Z,3.30
2022-08-10T05:15:09.840Z,4.13
2022-08-10T05:17:38.332Z,4.45
2022-08-10T05:20:09.510Z,4.20
2022-08-10T05:22:43.142Z,4.10
2022-08-10T05:25:19.326Z,4.20
2022-08-10T05:27:48.011Z,13.35
2022-08-10T05:30:20.784Z,15.23
2022-08-10T05:32:58.159Z,13.98
2022-08-10T05:35:39.124Z,7.68
2022-08-10T05:38:18.284Z,5.72
2022-08-10T05:40:47.449Z,4.10
2022-08-10T05:43:21.993Z,4.43
2022-08-10T05:46:18.958Z,4.18
2022-08-10T05:48:59.624Z,4.20
2022-08-10T05:51:29.941Z,3.83
2022-08-10T05:54:01.480Z,4.10
2022-08-10T05:56:55.248Z,4.15
2022-08-10T06:00:35.180Z,4.25
2022-08-10T06:02:35.772Z,4.63
2022-08-10T06:05:23.695Z,4.00
2022-08-10T06:08:03.907Z,4.32
2022-08-10T06:10:35.613Z,3.90
2022-08-10T06:13:29.763Z,3.92
2022-08-10T06:16:03.933Z,3.88
2022-08-10T06:18:31.770Z,4.45
2022-08-10T06:21:00.838Z,5.43
2022-08-10T06:23:30.508Z,4.78
2022-08-10T06:26:09.752Z,4.38
2022-08-10T06:29:02.727Z,4.03
2022-08-10T06:31:47.510Z,3.83
2022-08-10T06:34:41.880Z,4.03
2022-08-10T06:37:11.141Z,3.92
2022-08-10T06:39:38.264Z,3.97
2022-08-10T06:42:37.877Z,3.90
2022-08-10T06:45:09.172Z,4.05
2022-08-10T06:47:51.244Z,3.60
2022-08-10T06:50:56.109Z,3.70
2022-08-10T06:53:54.326Z,4.00
2022-08-10T06:56:37.777Z,3.50
2022-08-10T06:59:32.969Z,3.75
2022-08-10T07:02:19.506Z,3.53
2022-08-10T07:05:00.608Z,3.60
2022-08-10T07:07:33.601Z,3.92
2022-08-10T07:10:01.537Z,3.25
2022-08-10T07:12:31.507Z,4.43
2022-08-10T07:14:59.500Z,3.75
2022-08-10T07:17:28.391Z,3.60
2022-08-10T07:19:59.386Z,3.88
2022-08-10T07:23:55.291Z,3.55
2022-08-10T07:25:25.527Z,3.33
2022-08-10T07:28:00.788Z,3.10
2022-08-10T07:30:32.833Z,3.40
2022-08-10T07:33:02.436Z,3.35
2022-08-10T07:35:41.530Z,3.53
2022-08-10T07:38:18.520Z,3.53
2022-08-10T07:40:48.625Z,3.28
2022-08-10T07:43:18.805Z,3.55
2022-08-10T07:45:48.172Z,3.05
2022-08-10T07:48:26.335Z,3.33
2022-08-10T07:51:01.945Z,3.20
2022-08-10T07:53:38.382Z,3.75
2022-08-10T07:56:16.816Z,2.97
2022-08-10T07:58:59.739Z,3.08
2022-08-10T08:01:32.347Z,3.08
2022-08-10T08:04:11.113Z,2.80
2022-08-10T08:06:42.442Z,2.83
2022-08-10T08:09:11.293Z,2.55
2022-08-10T08:11:44.477Z,2.60
2022-08-10T08:14:15.342Z,2.80
2022-08-10T08:16:47.704Z,2.72
2022-08-10T08:19:37.745Z,2.72
2022-08-10T08:24:10.409Z,2.53
2022-08-10T08:24:56.728Z,2.25
2022-08-10T08:27:26.008Z,2.42
2022-08-10T08:29:54.130Z,2.50
2022-08-10T08:32:26.213Z,1.90
2022-08-10T08:35:07.230Z,2.42
2022-08-10T08:38:31.709Z,2.60
2022-08-10T08:40:35.246Z,2.38
2022-08-10T08:43:31.617Z,2.28
2022-08-10T08:46:38.424Z,2.35
2022-08-10T08:50:07.985Z,2.53
2022-08-10T08:53:12.890Z,2.20
2022-08-10T08:56:52.199Z,2.35
2022-08-10T08:59:53.774Z,2.58
2022-08-10T09:03:19.069Z,2.17
2022-08-10T09:06:25.726Z,1.83
2022-08-10T09:09:20.261Z,2.35
2022-08-10T09:12:12.693Z,1.90
2022-08-10T09:15:00.645Z,2.15
2022-08-10T09:17:47.705Z,2.35
2022-08-10T09:20:38.666Z,1.70
2022-08-10T09:24:04.646Z,2.35
2022-08-10T09:26:41.877Z,1.45
2022-08-10T09:29:14.428Z,1.98
2022-08-10T09:31:55.904Z,1.90
2022-08-10T09:36:23.869Z,2.38
2022-08-10T09:38:40.603Z,1.85
2022-08-10T09:41:23.494Z,2.35
2022-08-10T09:44:24.272Z,1.70
2022-08-10T09:47:58.542Z,1.90
2022-08-10T09:51:16.480Z,2.05
2022-08-10T09:54:04.464Z,2.10
2022-08-10T09:57:44.643Z,2.00
2022-08-10T10:00:16.131Z,2.17
2022-08-10T10:03:23.983Z,1.90
2022-08-10T10:06:12.472Z,1.90
2022-08-10T10:09:26.815Z,1.67
2022-08-10T10:12:20.645Z,2.35
2022-08-10T10:15:25.041Z,1.88
2022-08-10T10:20:49.780Z,2.00
2022-08-10T10:23:41.750Z,2.00
2022-08-10T10:26:44.462Z,1.95
2022-08-10T10:29:56.358Z,2.20
2022-08-10T10:32:41.331Z,1.90
2022-08-10T10:35:32.389Z,2.28
2022-08-10T10:38:03.690Z,2.15
2022-08-10T10:40:54.649Z,2.22
2022-08-10T10:43:58.861Z,2.60
2022-08-10T10:46:53.957Z,2.40
2022-08-10T10:50:00.724Z,2.20
2022-08-10T10:53:02.147Z,1.98
2022-08-10T10:56:13.400Z,2.30
2022-08-10T10:59:33.272Z,2.33
2022-08-10T11:02:32.439Z,2.23
2022-08-10T11:05:42.952Z,2.70
2022-08-10T11:08:30.955Z,3.17
2022-08-10T11:12:00.706Z,5.25
2022-08-10T11:14:29.318Z,2.47
2022-08-10T11:17:35.660Z,2.13
2022-08-10T11:20:17.983Z,2.28
2022-08-10T11:23:13.629Z,1.92
2022-08-10T11:25:56.038Z,2.28
2022-08-10T11:29:03.137Z,2.63
2022-08-10T11:32:20.690Z,2.20
2022-08-10T11:35:13.110Z,2.00
2022-08-10T11:38:31.368Z,2.00
2022-08-10T11:42:09.983Z,1.90
2022-08-10T11:44:30.960Z,2.17
2022-08-10T11:47:08.068Z,2.00
2022-08-10T11:49:55.447Z,2.00
2022-08-10T11:52:53.564Z,2.00
2022-08-10T11:55:24.552Z,1.63
2022-08-10T11:57:58.389Z,2.20
2022-08-10T12:00:32.440Z,2.03
2022-08-10T12:05:51.955Z,2.15
2022-08-10T12:10:03.032Z,2.00
2022-08-10T12:11:25.388Z,2.00
2022-08-10T12:14:24.989Z,1.80
2022-08-10T12:17:03.372Z,2.05
2022-08-10T12:19:59.454Z,1.90
2022-08-10T12:22:50.471Z,1.80
2022-08-10T12:25:55.666Z,2.40
2022-08-10T12:28:31.113Z,2.22
2022-08-10T12:31:16.624Z,2.77
2022-08-10T12:34:37.430Z,2.10
2022-08-10T12:37:57.604Z,2.17
2022-08-10T12:40:37.025Z,2.17
2022-08-10T12:44:07.867Z,2.03
2022-08-10T12:46:56.965Z,2.55
2022-08-10T12:49:32.209Z,1.90
2022-08-10T12:52:24.540Z,2.63
2022-08-10T12:54:53.708Z,2.00
2022-08-10T12:57:25.168Z,2.25
2022-08-10T13:00:01.741Z,1.95
2022-08-10T13:02:32.842Z,2.03
2022-08-10T13:05:07.113Z,2.17
2022-08-10T13:10:23.345Z,2.10
2022-08-10T13:12:56.721Z,2.08
2022-08-10T13:15:49.305Z,1.80
2022-08-10T13:18:29.140Z,1.90
2022-08-10T13:21:19.905Z,1.90
2022-08-10T13:24:13.280Z,2.00
2022-08-10T13:27:24.627Z,2.30
2022-08-10T13:30:05.240Z,2.20
2022-08-10T13:32:33.969Z,2.17
2022-08-10T13:35:17.628Z,2.40
2022-08-10T13:37:47.131Z,1.93
2022-08-10T13:40:19.473Z,1.80
2022-08-10T13:42:49.476Z,2.03
2022-08-10T13:45:23.852Z,2.25
2022-08-10T13:48:06.295Z,1.98
2022-08-10T13:50:37.575Z,2.10
2022-08-10T13:53:15.477Z,2.10
2022-08-10T13:55:54.842Z,2.33
2022-08-10T13:58:32.059Z,2.25
2022-08-10T14:01:15.410Z,1.80
2022-08-10T14:03:45.936Z,2.15
2022-08-10T14:06:16.404Z,1.90
2022-08-10T14:08:53.327Z,2.05
2022-08-10T14:11:23.050Z,1.63
2022-08-10T14:13:58.700Z,1.83
2022-08-10T14:16:26.840Z,1.80
2022-08-10T14:18:59.568Z,1.92
2022-08-10T14:21:28.535Z,2.25
2022-08-10T14:23:56.246Z,2.00
2022-08-10T14:26:32.662Z,2.38
2022-08-10T14:29:07.889Z,2.10
2022-08-10T14:31:37.378Z,2.20
2022-08-10T14:34:10.168Z,2.00
2022-08-10T14:36:52.055Z,2.10
2022-08-10T14:40:11.379Z,2.15
2022-08-10T14:43:09.307Z,1.92
2022-08-10T14:45:40.211Z,2.03
2022-08-10T14:48:13.013Z,1.75
2022-08-10T14:50:54.907Z,2.13
2022-08-10T14:53:27.365Z,1.80
2022-08-10T14:56:30.513Z,2.50
2022-08-10T14:59:06.054Z,2.60
2022-08-10T15:02:00.766Z,1.98
2022-08-10T15:04:29.246Z,2.13
2022-08-10T15:07:04.183Z,2.10
2022-08-10T15:10:00.884Z,1.95
2022-08-10T15:12:40.823Z,1.65
2022-08-10T15:15:16.368Z,1.98
2022-08-10T15:17:52.846Z,1.95
2022-08-10T15:20:24.874Z,1.83
2022-08-10T15:23:01.030Z,1.55
2022-08-10T15:25:30.330Z,2.00
2022-08-10T15:28:06.515Z,1.70
2022-08-10T15:30:43.905Z,2.00
2022-08-10T15:34:03.613Z,1.60
2022-08-10T15:37:36.620Z,1.75
2022-08-10T15:40:24.727Z,1.90
2022-08-10T15:42:35.398Z,1.80
2022-08-10T15:45:03.365Z,1.73
2022-08-10T15:47:51.181Z,1.50
2022-08-10T15:50:43.628Z,1.48
2022-08-10T15:53:23.281Z,1.50
2022-08-10T15:56:05.638Z,1.80
2022-08-10T15:58:48.968Z,1.50
2022-08-10T16:02:04.609Z,1.80
2022-08-10T16:04:31.549Z,1.85
2022-08-10T16:07:06.830Z,1.83
2022-08-10T16:10:25.151Z,1.55
2022-08-10T16:12:42.355Z,2.30
2022-08-10T16:15:19.489Z,1.67
2022-08-10T16:17:56.204Z,2.40
2022-08-10T16:20:31.379Z,2.03
2022-08-10T16:23:22.956Z,2.00
2022-08-10T16:26:14.603Z,2.10
2022-08-10T16:29:10.033Z,2.00
2022-08-10T16:31:42.418Z,1.67
2022-08-10T16:34:15.983Z,1.60
2022-08-10T16:36:57.633Z,1.83
2022-08-10T16:39:58.284Z,2.05
2022-08-10T16:42:21.565Z,1.88
2022-08-10T16:45:02.444Z,1.80
2022-08-10T16:47:32.282Z,2.00
2022-08-10T16:50:05.403Z,1.58
2022-08-10T16:52:34.525Z,1.50
2022-08-10T16:55:24.091Z,1.58
2022-08-10T16:58:01.824Z,1.70
2022-08-10T17:00:30.446Z,1.80
2022-08-10T17:03:22.654Z,1.92
2022-08-10T17:06:10.077Z,1.73
2022-08-10T17:08:49.581Z,1.40
2022-08-10T17:11:19.803Z,1.90
2022-08-10T17:13:48.193Z,2.00
2022-08-10T17:16:17.407Z,1.70
2022-08-10T17:18:47.991Z,1.80
2022-08-10T17:21:25.482Z,1.58
2022-08-10T17:23:58.028Z,1.50
2022-08-10T17:26:37.022Z,1.73
2022-08-10T17:29:53.370Z,1.70
2022-08-10T17:32:16.249Z,1.70
2022-08-10T17:34:49.129Z,1.60
2022-08-10T17:37:21.057Z,1.52
2022-08-10T17:40:01.927Z,1.50
2022-08-10T17:42:30.586Z,1.40
2022-08-10T17:45:00.127Z,1.42
2022-08-10T17:47:28.027Z,2.05
2022-08-10T17:49:58.444Z,1.70
2022-08-10T17:52:31.542Z,1.90
2022-08-10T17:55:05.962Z,1.73
2022-08-10T17:57:39.764Z,1.70
2022-08-10T18:00:14.705Z,1.50
2022-08-10T18:02:47.336Z,1.88
2022-08-10T18:05:15.494Z,1.63
2022-08-10T18:07:54.202Z,1.45
2022-08-10T18:10:22.414Z,1.77
2022-08-10T18:12:55.758Z,1.65
2022-08-10T18:15:27.929Z,2.20
2022-08-10T18:18:00.680Z,1.90
2022-08-10T18:20:39.837Z,1.60
2022-08-10T18:23:09.119Z,1.50
2022-08-10T18:25:41.550Z,1.90
2022-08-10T18:28:17.690Z,1.60
2022-08-10T18:30:55.133Z,1.60
2022-08-10T18:33:30.918Z,1.85
2022-08-10T18:36:05.858Z,1.42
2022-08-10T18:38:37.166Z,1.63
2022-08-10T18:41:14.313Z,1.70
2022-08-10T18:44:10.391Z,1.90
2022-08-10T18:46:53.964Z,1.92
2022-08-10T18:49:33.564Z,1.70
2022-08-10T18:52:08.774Z,1.70
2022-08-10T18:54:45.680Z,1.80
2022-08-10T18:57:46.006Z,1.75
2022-08-10T19:00:19.076Z,1.95
2022-08-10T19:03:22.175Z,1.70
2022-08-10T19:06:07.141Z,1.92
2022-08-10T19:08:54.803Z,1.83
2022-08-10T19:11:47.666Z,2.20
2022-08-10T19:14:32.914Z,1.90
2022-08-10T19:18:06.476Z,1.95
2022-08-10T19:20:57.884Z,2.00
2022-08-10T19:24:01.508Z,2.20
2022-08-10T19:26:44.838Z,2.00
2022-08-10T19:30:08.375Z,2.15
2022-08-10T19:32:59.770Z,1.80
2022-08-10T19:36:03.479Z,1.95
2022-08-10T19:38:50.290Z,1.77
2022-08-10T19:41:44.267Z,1.95
2022-08-10T19:45:56.003Z,1.83
2022-08-10T19:48:20.491Z,1.67
2022-08-10T19:51:01.417Z,2.40
2022-08-10T19:53:45.142Z,2.42
2022-08-10T19:56:34.668Z,2.15
2022-08-10T20:00:16.010Z,2.05
2022-08-10T20:02:26.458Z,2.38
2022-08-10T20:05:10.616Z,2.30
2022-08-10T20:08:19.807Z,2.05
2022-08-10T20:11:09.384Z,2.13
2022-08-10T20:14:21.627Z,2.20
2022-08-10T20:16:55.748Z,2.47
2022-08-10T20:20:13.347Z,2.33
2022-08-10T20:22:50.138Z,2.10
2022-08-10T20:25:25.007Z,2.10
2022-08-10T20:27:59.147Z,2.17
2022-08-10T20:30:34.585Z,2.25
2022-08-10T20:33:22.566Z,2.00
2022-08-10T20:36:00.175Z,2.00
2022-08-10T20:38:57.507Z,3.00
2022-08-10T20:42:06.456Z,2.40
2022-08-10T20:44:53.925Z,2.20
2022-08-10T20:48:04.793Z,2.15
2022-08-10T20:50:35.924Z,2.30
2022-08-10T20:53:14.345Z,2.33
2022-08-10T20:56:14.090Z,2.38
2022-08-10T20:58:53.071Z,2.17
2022-08-10T21:02:28.287Z,2.45
2022-08-10T21:04:59.842Z,2.50
2022-08-10T21:08:01.792Z,2.20
2022-08-10T21:11:26.576Z,2.15
2022-08-10T21:13:56.521Z,2.03
2022-08-10T21:17:00.738Z,2.63
2022-08-10T21:20:14.317Z,2.30
2022-08-10T21:22:49.646Z,2.22
2022-08-10T21:25:18.992Z,2.30
2022-08-10T21:27:58.442Z,2.40
2022-08-10T21:30:44.042Z,2.70
2022-08-10T21:33:54.646Z,2.10
2022-08-10T21:36:34.747Z,2.10
2022-08-10T21:39:42.249Z,2.20
2022-08-10T21:43:02.876Z,2.08
2022-08-10T21:46:12.842Z,2.00
2022-08-10T21:49:36.959Z,2.30
2022-08-10T21:52:40.802Z,2.33
2022-08-10T21:55:58.290Z,2.53
2022-08-10T21:59:07.766Z,2.13
2022-08-10T22:02:05.639Z,2.00
2022-08-10T22:04:53.186Z,2.63
2022-08-10T22:07:40.968Z,2.10
2022-08-10T22:10:30.905Z,2.28
2022-08-10T22:13:21.902Z,2.80
2022-08-10T22:16:15.877Z,2.88
2022-08-10T22:19:14.433Z,2.60
2022-08-10T22:22:39.949Z,2.70
2022-08-10T22:25:44.412Z,2.70
2022-08-10T22:28:37.109Z,2.65
2022-08-10T22:31:51.792Z,2.17
2022-08-10T22:35:03.446Z,2.70
2022-08-10T22:38:10.653Z,2.50
2022-08-10T22:41:03.239Z,2.80
2022-08-10T22:43:52.859Z,2.40
2022-08-10T22:46:47.635Z,2.42
2022-08-10T22:49:25.658Z,2.35
2022-08-10T22:52:21.550Z,2.95
2022-08-10T22:55:14.827Z,2.70
2022-08-10T22:58:05.930Z,2.50
2022-08-10T23:00:34.618Z,2.60
2022-08-10T23:03:16.376Z,2.83
2022-08-10T23:06:10.510Z,2.42
2022-08-10T23:09:06.597Z,2.80
2022-08-10T23:11:41.264Z,2.40
2022-08-10T23:14:12.729Z,2.95
2022-08-10T23:17:13.174Z,2.30
2022-08-10T23:20:01.562Z,2.80
2022-08-10T23:22:40.867Z,2.20
2022-08-10T23:25:21.788Z,2.13
2022-08-10T23:28:03.021Z,2.67
2022-08-10T23:30:45.080Z,2.60
2022-08-10T23:33:14.201Z,2.95
2022-08-10T23:36:31.444Z,3.30
2022-08-10T23:38:42.549Z,3.13
2022-08-10T23:41:11.361Z,3.00
2022-08-10T23:44:04.174Z,3.25
2022-08-10T23:46:38.069Z,2.60
2022-08-10T23:49:10.223Z,2.70
2022-08-10T23:51:55.612Z,2.70
2022-08-10T23:54:25.937Z,2.67
2022-08-10T23:57:01.103Z,2.67
2022-08-10T23:59:32.627Z,2.60
